Time;durP1;ratioP1;P1;durP2;ratioP2;P2;SDS_P1;SDS_P2;PMS_P1;PMS_P2;Temp;Humidity;BMP_temperature;BMP_pressure;BME280_temperature;BME280_humidity;BME280_pressure;Samples;Min_cycle;Max_cycle;Signal;HPM_P1;HPM_P2
2021/12/06 13:39:40;;;;;;;47.27;21.10;;;;;;;1.18;100.00;98265.50;1881634;75;22256;-67
2021/12/06 13:42:13;;;;;;;50.57;24.93;;;;;;;1.17;100.00;98271.38;1858320;77;21050;-66
2021/12/06 13:44:56;;;;;;;49.07;23.00;;;;;;;1.20;100.00;98264.68;1855185;77;20967;-69
2021/12/06 13:47:26;;;;;;;41.20;20.93;;;;;;;1.37;100.00;98278.23;1848744;77;21576;-63
2021/12/06 13:50:01;;;;;;;35.75;17.85;;;;;;;1.18;100.00;98273.52;1853700;77;21493;-67
2021/12/06 13:52:52;;;;;;;39.67;18.87;;;;;;;1.10;100.00;98280.33;1856398;76;21045;-66
2021/12/06 13:55:29;;;;;;;35.90;16.33;;;;;;;1.02;100.00;98283.67;1862870;77;21065;-65
2021/12/06 13:58:02;;;;;;;37.90;19.27;;;;;;;0.88;100.00;98296.20;1864389;77;21011;-66
2021/12/06 14:00:42;;;;;;;37.00;18.13;;;;;;;0.93;100.00;98299.59;1860638;77;20974;-64
2021/12/06 14:03:06;;;;;;;26.50;11.50;;;;;;;0.90;100.00;98305.50;1850472;77;21018;-68
2021/12/06 14:05:33;;;;;;;35.13;15.20;;;;;;;0.84;100.00;98320.56;1827196;77;21455;-64
2021/12/06 14:08:01;;;;;;;37.97;19.07;;;;;;;0.81;100.00;98320.61;1859985;77;20991;-68
2021/12/06 14:10:28;;;;;;;37.17;18.43;;;;;;;0.84;100.00;98315.22;1860043;77;21364;-66
2021/12/06 14:12:55;;;;;;;36.70;17.47;;;;;;;0.86;100.00;98315.74;1854223;77;21025;-66
2021/12/06 14:16:07;;;;;;;38.80;18.80;;;;;;;0.88;100.00;98317.56;1858326;77;21076;-67
2021/12/06 14:17:55;;;;;;;;;;;;;;;0.92;100.00;98327.91;1836012;77;21565;-65
2021/12/06 14:20:22;;;;;;;40.33;18.73;;;;;;;0.89;100.00;98325.83;1857903;77;20132;-67
2021/12/06 14:22:50;;;;;;;36.37;18.53;;;;;;;0.93;100.00;98327.63;1856309;77;21448;-66
2021/12/06 14:25:18;;;;;;;29.43;14.00;;;;;;;0.95;100.00;98332.66;1859495;77;21047;-67
2021/12/06 14:27:46;;;;;;;43.00;17.93;;;;;;;0.93;100.00;98334.84;1859885;77;20967;-67
2021/12/06 14:30:17;;;;;;;36.93;18.50;;;;;;;0.91;100.00;98326.31;1850836;76;21008;-69
2021/12/06 14:32:51;;;;;;;37.60;17.80;;;;;;;0.94;100.00;98332.41;1852451;77;21010;-68
2021/12/06 14:35:20;;;;;;;38.03;17.90;;;;;;;0.94;100.00;98332.41;1850345;77;22096;-65
2021/12/06 14:37:47;;;;;;;40.30;18.67;;;;;;;0.91;100.00;98325.78;1854852;77;20982;-67
2021/12/06 14:40:14;;;;;;;33.80;18.07;;;;;;;0.90;100.00;98326.86;1855161;77;21006;-68
2021/12/06 14:42:42;;;;;;;39.27;17.07;;;;;;;0.87;100.00;98333.32;1852081;76;21015;-63
2021/12/06 14:45:12;;;;;;;37.40;18.10;;;;;;;0.81;100.00;98325.95;1840886;77;21419;-64
2021/12/06 14:47:53;;;;;;;32.10;14.87;;;;;;;0.89;100.00;98316.48;1858091;77;21014;-63
2021/12/06 14:50:32;;;;;;;38.20;18.77;;;;;;;0.90;100.00;98332.77;1845038;77;21045;-64
2021/12/06 14:52:51;;;;;;;38.13;18.93;;;;;;;0.90;100.00;98331.43;1852485;77;21106;-67
2021/12/06 14:58:01;;;;;;;40.33;19.57;;;;;;;0.94;100.00;98339.08;1859606;76;21462;-66
2021/12/06 15:00:36;;;;;;;41.07;19.87;;;;;;;0.98;100.00;98335.54;1863248;77;21034;-64
2021/12/06 15:03:05;;;;;;;38.13;19.13;;;;;;;1.03;100.00;98340.55;1851230;77;21017;-67
2021/12/06 15:05:47;;;;;;;36.60;17.40;;;;;;;1.13;100.00;98331.02;1862939;76;21077;-64
2021/12/06 15:08:33;;;;;;;35.10;18.23;;;;;;;1.20;100.00;98335.46;1862127;76;21026;-67
2021/12/06 15:11:04;;;;;;;38.57;18.73;;;;;;;1.23;100.00;98334.33;1864672;76;20938;-63
2021/12/06 15:13:33;;;;;;;42.90;20.33;;;;;;;1.24;100.00;98341.77;1868402;76;20963;-64
2021/12/06 15:16:03;;;;;;;37.20;17.50;;;;;;;1.32;100.00;98339.77;1865940;76;21033;-66
2021/12/06 15:18:32;;;;;;;38.87;19.73;;;;;;;1.33;100.00;98340.02;1865366;76;20983;-64
2021/12/06 15:21:00;;;;;;;37.67;17.87;;;;;;;1.38;100.00;98343.95;1866237;76;20956;-67
2021/12/06 15:23:32;;;;;;;40.70;19.93;;;;;;;1.38;100.00;98335.94;1863448;76;20969;-66
2021/12/06 15:26:02;;;;;;;33.63;17.23;;;;;;;1.47;100.00;98351.52;1866701;76;20947;-64
2021/12/06 15:28:31;;;;;;;35.20;17.83;;;;;;;1.45;100.00;98347.02;1863290;76;21482;-64
2021/12/06 15:30:59;;;;;;;31.73;15.97;;;;;;;1.40;100.00;98349.23;1865137;76;20932;-63
2021/12/06 15:33:27;;;;;;;38.30;19.97;;;;;;;1.41;100.00;98357.51;1859978;76;20888;-65
2021/12/06 15:35:57;;;;;;;40.73;19.70;;;;;;;1.44;100.00;98352.11;1866145;76;20955;-65
2021/12/06 15:38:31;;;;;;;35.67;19.67;;;;;;;1.47;100.00;98352.85;1857106;76;21053;-66
2021/12/06 15:41:10;;;;;;;33.57;18.80;;;;;;;1.42;100.00;98353.73;1868322;76;21560;-63
2021/12/06 15:43:44;;;;;;;32.90;17.77;;;;;;;1.47;100.00;98355.52;1861527;76;20963;-63
2021/12/06 15:46:11;;;;;;;33.33;16.73;;;;;;;1.49;100.00;98354.70;1871759;76;20931;-68
2021/12/06 15:48:39;;;;;;;36.27;17.77;;;;;;;1.48;100.00;98352.31;1865932;76;21001;-68
2021/12/06 15:51:14;;;;;;;33.60;16.93;;;;;;;1.51;100.00;98361.07;1862134;76;20908;-68
2021/12/06 15:53:46;;;;;;;34.87;18.00;;;;;;;1.56;100.00;98360.98;1858671;76;20975;-67
2021/12/06 15:56:13;;;;;;;33.70;17.25;;;;;;;1.55;100.00;98355.39;1860829;77;20990;-67
2021/12/06 15:58:41;;;;;;;35.33;16.57;;;;;;;1.57;100.00;98354.56;1863323;77;21029;-67
2021/12/06 16:01:09;;;;;;;35.57;16.77;;;;;;;1.53;100.00;98350.89;1863026;77;20982;-67
2021/12/06 16:03:40;;;;;;;33.63;17.30;;;;;;;1.58;100.00;98350.78;1863258;77;21033;-68
2021/12/06 16:06:10;;;;;;;35.60;16.15;;;;;;;1.54;100.00;98354.59;1863526;77;20993;-69
2021/12/06 16:08:40;;;;;;;37.27;17.97;;;;;;;1.27;100.00;98361.25;1863579;77;21482;-68
2021/12/06 16:11:08;;;;;;;36.83;18.77;;;;;;;1.34;100.00;98365.13;1863148;77;21016;-69
2021/12/06 16:13:39;;;;;;;30.37;14.77;;;;;;;1.52;100.00;98372.02;1863313;77;20990;-66
2021/12/06 16:16:09;;;;;;;37.80;18.03;;;;;;;1.54;100.00;98375.20;1863491;77;20967;-68
2021/12/06 16:18:37;;;;;;;27.80;14.03;;;;;;;1.65;100.00;98373.93;1863153;77;21002;-67
2021/12/06 16:21:10;;;;;;;35.77;16.80;;;;;;;1.64;100.00;98379.02;1863258;77;21018;-67
2021/12/06 16:23:46;;;;;;;28.83;15.53;;;;;;;1.63;100.00;98382.23;1863121;77;20974;-66
2021/12/06 16:26:17;;;;;;;32.93;15.03;;;;;;;1.66;100.00;98384.84;1863156;77;20978;-63
2021/12/06 16:28:53;;;;;;;34.53;17.13;;;;;;;1.49;100.00;98387.31;1863020;77;21076;-67
2021/12/06 16:31:24;;;;;;;37.50;16.93;;;;;;;1.59;100.00;98387.91;1863385;77;21052;-69
2021/12/06 16:33:56;;;;;;;36.80;17.57;;;;;;;1.62;100.00;98389.99;1862719;77;20975;-68
2021/12/06 16:36:42;;;;;;;31.02;14.55;;;;;;;1.62;100.00;98390.53;1863181;77;21089;-67
2021/12/06 16:39:30;;;;;;;29.43;13.97;;;;;;;1.56;100.00;98387.17;1863191;77;21061;-69
2021/12/06 16:42:13;;;;;;;28.80;14.77;;;;;;;1.41;100.00;98390.11;1863391;77;21006;-68
2021/12/06 16:44:44;;;;;;;31.27;15.40;;;;;;;1.41;100.00;98384.23;1861996;77;21505;-68
2021/12/06 16:47:22;;;;;;;31.95;16.50;;;;;;;1.35;100.00;98385.95;1863460;77;21041;-67
2021/12/06 16:49:56;;;;;;;36.33;18.50;;;;;;;1.51;100.00;98379.78;1863249;77;20983;-67
2021/12/06 16:52:27;;;;;;;33.47;17.53;;;;;;;1.62;100.00;98379.84;1863379;77;21462;-67
2021/12/06 16:55:06;;;;;;;36.28;17.57;;;;;;;1.74;100.00;98378.82;1863468;77;21505;-66
2021/12/06 16:57:48;;;;;;;32.07;14.97;;;;;;;1.79;100.00;98374.19;1863209;77;21052;-66
2021/12/06 17:00:47;;;;;;;40.83;19.77;;;;;;;1.82;100.00;98383.48;1861949;77;21057;-66
2021/12/06 17:03:19;;;;;;;36.93;18.67;;;;;;;1.73;100.00;98374.02;1863011;77;21034;-67
2021/12/06 17:05:56;;;;;;;35.58;18.12;;;;;;;1.81;100.00;98373.87;1863305;77;21045;-66
2021/12/06 17:08:34;;;;;;;37.90;19.37;;;;;;;1.86;100.00;98377.25;1863347;77;21026;-67
2021/12/06 17:11:08;;;;;;;39.57;19.73;;;;;;;1.90;100.00;98379.58;1861450;77;21022;-66
2021/12/06 17:13:38;;;;;;;43.40;21.07;;;;;;;1.91;100.00;98380.38;1862744;77;21140;-68
2021/12/06 17:16:08;;;;;;;41.47;19.77;;;;;;;1.94;100.00;98377.10;1863115;77;21041;-66
2021/12/06 17:18:37;;;;;;;40.73;21.03;;;;;;;1.98;100.00;98377.30;1863303;77;21029;-68
2021/12/06 17:21:11;;;;;;;41.40;21.17;;;;;;;2.02;100.00;98375.08;1849792;77;21526;-68
2021/12/06 17:23:41;;;;;;;40.57;20.87;;;;;;;2.15;100.00;98373.46;1856279;77;21543;-66
2021/12/06 17:26:18;;;;;;;40.80;20.03;;;;;;;2.19;100.00;98378.46;1856081;77;21480;-67
2021/12/06 17:28:53;;;;;;;38.10;19.17;;;;;;;2.21;100.00;98378.97;1853668;77;21447;-66
2021/12/06 17:31:36;;;;;;;33.87;15.37;;;;;;;2.10;100.00;98384.28;1855180;77;21202;-65
2021/12/06 17:34:10;;;;;;;39.03;18.93;;;;;;;1.99;100.00;98390.92;1855561;77;21040;-65
2021/12/06 17:36:42;;;;;;;42.27;22.20;;;;;;;1.70;100.00;98394.66;1856020;77;21059;-66
2021/12/06 17:39:13;;;;;;;32.85;17.70;;;;;;;1.63;100.00;98395.59;1854986;77;21024;-66
2021/12/06 17:41:40;;;;;;;39.03;18.63;;;;;;;1.61;100.00;98397.78;1854263;77;20976;-67
2021/12/06 17:44:09;;;;;;;37.00;16.90;;;;;;;1.68;100.00;98390.70;1854323;77;21028;-68
2021/12/06 17:46:36;;;;;;;34.33;16.47;;;;;;;1.54;100.00;98397.92;1834995;77;21003;-69
2021/12/06 17:49:07;;;;;;;32.87;17.10;;;;;;;1.19;100.00;98398.77;1854424;77;21027;-66
2021/12/06 17:51:35;;;;;;;34.47;17.33;;;;;;;1.13;100.00;98399.92;1854184;77;21014;-66
2021/12/06 17:54:02;;;;;;;32.70;16.27;;;;;;;1.12;100.00;98398.89;1854172;77;21001;-66
2021/12/06 17:56:29;;;;;;;31.30;15.33;;;;;;;1.01;100.00;98408.95;1853704;77;21024;-66
2021/12/06 17:58:59;;;;;;;26.57;13.07;;;;;;;1.07;100.00;98410.45;1854280;77;21153;-67
2021/12/06 18:01:38;;;;;;;28.20;14.07;;;;;;;0.91;100.00;98413.09;1854355;77;20984;-66
2021/12/06 18:04:09;;;;;;;35.93;16.50;;;;;;;0.87;100.00;98422.22;1854408;77;21559;-67
2021/12/06 18:06:37;;;;;;;34.10;15.53;;;;;;;0.88;100.00;98425.69;1854429;77;21527;-67
2021/12/06 18:09:05;;;;;;;29.87;15.00;;;;;;;0.94;100.00;98427.19;1854143;77;21100;-67
2021/12/06 18:11:34;;;;;;;29.40;14.43;;;;;;;0.91;100.00;98432.58;1854395;77;21000;-67
2021/12/06 18:14:01;;;;;;;34.67;16.27;;;;;;;0.81;100.00;98426.05;1854324;76;21050;-66
2021/12/06 18:16:28;;;;;;;33.63;18.33;;;;;;;0.89;100.00;98425.95;1854190;77;21000;-66
2021/12/06 18:18:56;;;;;;;35.43;17.53;;;;;;;0.90;100.00;98436.32;1854035;77;21531;-68
2021/12/06 18:21:23;;;;;;;26.83;13.13;;;;;;;0.88;100.00;98437.16;1854243;77;20964;-66
2021/12/06 18:23:50;;;;;;;32.87;15.60;;;;;;;0.85;100.00;98440.95;1854436;77;21132;-64
2021/12/06 18:26:18;;;;;;;36.60;15.83;;;;;;;0.75;100.00;98445.11;1854389;77;21023;-67
2021/12/06 18:28:45;;;;;;;30.17;14.53;;;;;;;0.71;100.00;98442.77;1854572;77;21004;-66
2021/12/06 18:31:14;;;;;;;34.63;16.07;;;;;;;0.69;100.00;98444.91;1853933;77;21240;-67
2021/12/06 18:33:43;;;;;;;36.70;15.57;;;;;;;0.67;100.00;98448.42;1854347;77;21552;-67
2021/12/06 18:36:11;;;;;;;28.57;13.10;;;;;;;0.74;100.00;98450.19;1854420;77;21039;-66
2021/12/06 18:38:46;;;;;;;27.40;13.07;;;;;;;0.71;100.00;98450.77;1854528;77;21099;-64
2021/12/06 18:41:10;;;;;;;29.00;15.27;;;;;;;0.73;100.00;98441.92;1855060;77;21020;-68
2021/12/06 18:46:09;;;;;;;29.53;14.37;;;;;;;0.85;100.00;98442.29;1856288;77;21039;-65
2021/12/06 18:48:39;;;;;;;28.43;13.60;;;;;;;0.87;100.00;98446.78;1855917;77;21511;-66
2021/12/06 18:51:07;;;;;;;27.97;12.70;;;;;;;0.92;100.00;98449.39;1855907;77;21027;-66
2021/12/06 18:53:34;;;;;;;26.13;13.83;;;;;;;0.82;100.00;98452.22;1856187;77;21098;-68
2021/12/06 18:56:02;;;;;;;28.80;15.13;;;;;;;0.84;100.00;98454.84;1856163;77;21019;-68
2021/12/06 18:58:29;;;;;;;28.93;13.60;;;;;;;0.97;100.00;98450.66;1853374;77;20940;-67
2021/12/06 19:00:57;;;;;;;29.70;14.17;;;;;;;0.94;100.00;98453.89;1841045;77;21514;-67
2021/12/06 19:03:25;;;;;;;26.10;12.10;;;;;;;1.05;100.00;98456.66;1833854;77;21020;-68
2021/12/06 19:05:52;;;;;;;29.03;13.73;;;;;;;1.00;100.00;98466.10;1855958;77;20984;-68
2021/12/06 19:08:20;;;;;;;30.80;13.73;;;;;;;1.02;100.00;98462.59;1856208;77;21012;-66
2021/12/06 19:10:47;;;;;;;24.97;11.23;;;;;;;1.18;100.00;98469.84;1855970;77;21103;-67
2021/12/06 19:13:14;;;;;;;26.83;12.80;;;;;;;1.26;100.00;98475.86;1856282;77;21008;-67
2021/12/06 19:15:42;;;;;;;26.97;13.00;;;;;;;1.32;100.00;98476.02;1856248;77;21074;-66
2021/12/06 19:18:10;;;;;;;29.43;12.83;;;;;;;1.31;100.00;98483.23;1856094;77;20988;-69
2021/12/06 19:20:41;;;;;;;26.57;12.77;;;;;;;1.30;100.00;98480.34;1856552;77;21054;-66
2021/12/06 19:23:06;;;;;;;26.63;13.27;;;;;;;1.33;100.00;98477.08;1855790;76;21044;-67
2021/12/06 19:25:35;;;;;;;26.53;12.10;;;;;;;1.11;100.00;98485.44;1855888;77;21029;-67
2021/12/06 19:28:02;;;;;;;28.87;13.17;;;;;;;1.04;100.00;98485.00;1856235;77;21518;-69
2021/12/06 19:30:29;;;;;;;29.03;13.60;;;;;;;0.93;100.00;98484.36;1856351;77;20949;-67
2021/12/06 19:32:56;;;;;;;29.90;13.33;;;;;;;0.77;100.00;98481.10;1856371;77;21136;-67
2021/12/06 19:35:24;;;;;;;26.13;12.83;;;;;;;0.72;100.00;98483.83;1855989;77;21444;-66
2021/12/06 19:37:51;;;;;;;26.10;11.00;;;;;;;0.61;100.00;98478.37;1856274;77;21000;-66
2021/12/06 19:40:19;;;;;;;24.47;12.30;;;;;;;0.55;100.00;98481.39;1859095;77;20992;-66
2021/12/06 19:42:48;;;;;;;27.23;13.37;;;;;;;0.51;100.00;98473.70;1860138;77;21035;-67
2021/12/06 19:45:15;;;;;;;28.53;12.37;;;;;;;0.51;100.00;98468.37;1859999;77;21058;-68
2021/12/06 19:47:42;;;;;;;26.77;12.63;;;;;;;0.44;100.00;98470.86;1860039;77;20976;-67
2021/12/06 19:50:11;;;;;;;24.70;12.83;;;;;;;0.47;100.00;98476.16;1860221;77;20968;-67
2021/12/06 19:52:38;;;;;;;28.37;13.67;;;;;;;0.47;100.00;98476.16;1859822;77;21059;-66
2021/12/06 19:55:06;;;;;;;28.50;13.30;;;;;;;0.46;100.00;98481.22;1859795;77;21031;-68
2021/12/06 19:57:35;;;;;;;30.83;14.10;;;;;;;0.51;100.00;98481.17;1834104;77;21008;-69
2021/12/06 20:00:06;;;;;;;25.53;13.03;;;;;;;0.61;100.00;98477.57;1860325;77;21047;-68
2021/12/06 20:02:33;;;;;;;29.30;13.83;;;;;;;0.71;100.00;98482.23;1860614;77;20961;-69
2021/12/06 20:05:00;;;;;;;29.43;13.83;;;;;;;0.84;100.00;98476.20;1860295;77;21102;-69
2021/12/06 20:07:28;;;;;;;26.97;12.20;;;;;;;1.01;100.00;98474.91;1860470;77;21054;-69
2021/12/06 20:09:55;;;;;;;23.53;11.47;;;;;;;1.02;100.00;98473.80;1833648;77;21043;-69
2021/12/06 20:12:22;;;;;;;28.67;12.83;;;;;;;1.08;100.00;98470.80;1860159;76;20996;-68
2021/12/06 20:14:50;;;;;;;29.27;12.40;;;;;;;1.09;100.00;98469.69;1859761;77;21194;-67
2021/12/06 20:17:17;;;;;;;28.30;13.23;;;;;;;1.06;100.00;98468.94;1859954;77;21056;-69
2021/12/06 20:19:44;;;;;;;26.47;13.17;;;;;;;0.90;100.00;98467.02;1859902;77;21008;-68
2021/12/06 20:22:12;;;;;;;23.27;11.50;;;;;;;0.98;100.00;98468.25;1833646;77;21051;-69
2021/12/06 20:24:39;;;;;;;27.30;12.87;;;;;;;1.05;100.00;98467.34;1860118;77;21031;-68
2021/12/06 20:27:09;;;;;;;26.43;12.60;;;;;;;1.13;100.00;98468.56;1813075;78;20956;-68
2021/12/06 20:29:36;;;;;;;26.47;13.37;;;;;;;1.23;100.00;98469.77;1860708;77;20996;-68
2021/12/06 20:32:04;;;;;;;29.70;12.77;;;;;;;1.23;100.00;98469.23;1859929;77;21049;-68
2021/12/06 20:34:31;;;;;;;24.50;13.07;;;;;;;1.25;100.00;98473.72;1859853;77;20995;-67
2021/12/06 20:36:58;;;;;;;25.60;13.13;;;;;;;1.29;100.00;98475.27;1860150;77;22014;-66
2021/12/06 20:39:25;;;;;;;27.27;13.87;;;;;;;1.27;100.00;98479.59;1859954;77;21523;-69
2021/12/06 20:41:56;;;;;;;30.33;14.43;;;;;;;1.40;100.00;98474.02;1859688;77;21039;-68
2021/12/06 20:44:23;;;;;;;27.10;13.73;;;;;;;1.50;100.00;98468.51;1859872;77;21570;-68
2021/12/06 20:46:52;;;;;;;31.13;15.80;;;;;;;1.52;100.00;98465.55;1859908;77;21578;-69
2021/12/06 20:49:19;;;;;;;30.10;14.13;;;;;;;1.52;100.00;98466.89;1860095;77;20960;-69
2021/12/06 20:51:47;;;;;;;29.40;14.13;;;;;;;1.41;100.00;98468.41;1860117;77;21007;-69
2021/12/06 20:54:14;;;;;;;26.43;13.60;;;;;;;1.45;100.00;98461.39;1860282;77;21085;-69
2021/12/06 20:56:42;;;;;;;27.13;13.50;;;;;;;1.49;100.00;98457.59;1860112;77;20961;-68
2021/12/06 20:59:12;;;;;;;26.97;14.77;;;;;;;1.45;100.00;98465.94;1859992;77;21023;-68
2021/12/06 21:01:40;;;;;;;28.33;14.00;;;;;;;1.46;100.00;98466.20;1859906;77;21005;-70
2021/12/06 21:04:07;;;;;;;25.10;12.00;;;;;;;1.37;100.00;98467.94;1859672;77;21019;-67
2021/12/06 21:06:37;;;;;;;28.07;13.87;;;;;;;1.25;100.00;98462.24;1860149;77;21461;-69
2021/12/06 21:09:08;;;;;;;24.53;12.33;;;;;;;1.05;100.00;98460.66;1860208;77;21039;-67
2021/12/06 21:11:43;;;;;;;29.17;14.13;;;;;;;0.90;100.00;98468.36;1860084;76;20949;-66
2021/12/06 21:16:36;;;;;;;29.67;14.57;;;;;;;0.56;100.00;98448.30;1859925;77;20949;-68
2021/12/06 21:19:13;;;;;;;32.53;13.90;;;;;;;0.61;100.00;98460.22;1859991;77;21715;-69
2021/12/06 21:21:42;;;;;;;33.43;17.00;;;;;;;0.54;100.00;98463.25;1859920;77;20971;-68
2021/12/06 21:24:11;;;;;;;32.40;15.53;;;;;;;0.54;100.00;98454.45;1859963;77;20956;-67
2021/12/06 21:26:39;;;;;;;36.20;16.53;;;;;;;0.47;100.00;98454.27;1859966;77;21056;-68
2021/12/06 21:29:07;;;;;;;34.87;16.17;;;;;;;0.47;100.00;98453.47;1859783;77;21043;-67
2021/12/06 21:31:35;;;;;;;36.57;17.17;;;;;;;0.53;100.00;98452.31;1859792;77;21519;-66
2021/12/06 21:34:02;;;;;;;35.57;16.80;;;;;;;0.61;100.00;98450.34;1859798;77;21008;-65
2021/12/06 21:36:29;;;;;;;30.33;16.20;;;;;;;0.65;100.00;98450.56;1860048;77;21027;-64
2021/12/06 21:38:56;;;;;;;31.43;15.37;;;;;;;0.66;100.00;98452.95;1859832;77;21024;-65
2021/12/06 21:41:24;;;;;;;31.00;14.80;;;;;;;0.62;100.00;98451.94;1829077;77;21056;-65
